Time;durP1;ratioP1;P1;durP2;ratioP2;P2;SDS_P1;SDS_P2;PMS_P1;PMS_P2;Temp;Humidity;BMP_temperature;BMP_pressure;BME280_temperature;BME280_humidity;BME280_pressure;Samples;Min_cycle;Max_cycle;Signal;HPM_P1;HPM_P2
2023/04/09 00:00:35;;;;;;;32.43;29.10;;;;;19.90;101424.00;;;;2078699;28;20658;-71
2023/04/09 00:01:35;;;;;;;33.07;29.67;;;;;19.90;101427.00;;;;2079313;28;20555;-71
2023/04/09 00:02:35;;;;;;;29.80;26.60;;;;;19.90;101424.00;;;;2082317;28;20221;-71
2023/04/09 00:03:36;;;;;;;30.80;27.50;;;;;19.90;101420.00;;;;2079883;28;20213;-71
2023/04/09 00:04:36;;;;;;;32.63;27.73;;;;;19.90;101425.00;;;;2069796;28;20691;-71
2023/04/09 00:05:38;;;;;;;30.77;27.10;;;;;19.90;101427.00;;;;2070940;28;20818;-71
2023/04/09 00:06:38;;;;;;;29.65;26.52;;;;;19.90;101421.00;;;;2078841;28;20246;-71
2023/04/09 00:07:39;;;;;;;30.53;27.27;;;;;19.90;101426.00;;;;2070564;28;20230;-71
2023/04/09 00:08:39;;;;;;;30.50;27.20;;;;;19.90;101433.00;;;;2070970;28;20220;-71
2023/04/09 00:09:41;;;;;;;28.80;25.90;;;;;19.90;101430.00;;;;2082264;28;20702;-71
2023/04/09 00:10:42;;;;;;;28.65;25.65;;;;;19.80;101431.00;;;;2079468;28;20754;-71
2023/04/09 00:11:42;;;;;;;29.10;26.10;;;;;19.80;101425.00;;;;2078230;28;20213;-71
2023/04/09 00:12:42;;;;;;;28.37;25.37;;;;;19.80;101424.00;;;;2079642;28;20255;-71
2023/04/09 00:13:43;;;;;;;28.10;25.00;;;;;19.90;101410.00;;;;2078570;28;20700;-71
2023/04/09 00:14:43;;;;;;;28.30;25.30;;;;;19.90;101421.00;;;;2079628;28;20217;-71
2023/04/09 00:15:44;;;;;;;27.77;24.80;;;;;19.90;101441.00;;;;2079451;28;20225;-71
2023/04/09 00:16:44;;;;;;;27.50;24.67;;;;;19.80;101435.00;;;;2070133;28;20238;-71
2023/04/09 00:17:45;;;;;;;27.87;24.97;;;;;19.80;101409.00;;;;2070858;28;20467;-71
2023/04/09 00:18:46;;;;;;;28.00;25.10;;;;;19.80;101425.00;;;;2079690;28;20223;-71
2023/04/09 00:19:46;;;;;;;27.47;24.60;;;;;19.80;101422.00;;;;2070670;28;20238;-71
2023/04/09 00:20:47;;;;;;;27.67;24.67;;;;;19.80;101425.00;;;;2062356;28;20477;-71
2023/04/09 00:21:47;;;;;;;27.17;24.27;;;;;19.80;101423.00;;;;2063227;28;20215;-71
2023/04/09 00:22:48;;;;;;;26.60;23.80;;;;;19.80;101413.00;;;;2079354;28;20237;-71
2023/04/09 00:23:49;;;;;;;26.73;24.00;;;;;19.80;101426.00;;;;2079050;28;20248;-71
2023/04/09 00:24:49;;;;;;;26.27;23.47;;;;;19.80;101418.00;;;;2079405;28;20217;-71
2023/04/09 00:25:49;;;;;;;24.20;21.70;;;;;19.80;101417.00;;;;2078791;28;20280;-71
2023/04/09 00:26:50;;;;;;;24.87;22.20;;;;;19.80;101419.00;;;;2079749;28;20692;-71
2023/04/09 00:27:50;;;;;;;24.60;22.10;;;;;19.80;101413.00;;;;2078637;28;20289;-71
2023/04/09 00:28:50;;;;;;;24.87;22.47;;;;;19.80;101417.00;;;;2079381;28;20213;-71
2023/04/09 00:29:53;;;;;;;25.60;23.00;;;;;19.80;101414.00;;;;2078955;28;20221;-71
2023/04/09 00:30:54;;;;;;;25.23;22.63;;;;;19.80;101418.00;;;;2078961;28;20296;-71
2023/04/09 00:31:54;;;;;;;25.20;22.60;;;;;19.80;101428.00;;;;2079321;28;20758;-71
2023/04/09 00:32:55;;;;;;;25.40;22.63;;;;;19.80;101416.00;;;;2078762;28;20715;-71
2023/04/09 00:33:55;;;;;;;26.97;23.67;;;;;19.80;101413.00;;;;2079516;28;20284;-71
2023/04/09 00:34:55;;;;;;;24.97;22.30;;;;;19.80;101398.00;;;;2080674;28;20209;-71
2023/04/09 00:35:56;;;;;;;24.47;21.93;;;;;19.80;101411.00;;;;2082622;28;20735;-71
2023/04/09 00:36:56;;;;;;;24.53;21.93;;;;;19.80;101410.00;;;;2079158;28;20301;-71
2023/04/09 00:37:56;;;;;;;23.87;21.47;;;;;19.80;101418.00;;;;2078861;28;20219;-71
2023/04/09 00:38:57;;;;;;;25.27;22.67;;;;;19.80;101414.00;;;;2079524;28;20206;-71
2023/04/09 00:39:58;;;;;;;25.60;23.00;;;;;19.80;101411.00;;;;2078487;28;20272;-71
2023/04/09 00:40:58;;;;;;;22.63;20.27;;;;;19.80;101408.00;;;;2079432;28;20210;-70
2023/04/09 00:42:01;;;;;;;23.13;20.83;;;;;19.80;101415.00;;;;2078000;28;20271;-71
2023/04/09 00:43:01;;;;;;;22.45;20.10;;;;;19.80;101421.00;;;;2074518;28;20293;-70
2023/04/09 00:44:02;;;;;;;23.03;20.67;;;;;19.80;101417.00;;;;2078843;28;20579;-71
2023/04/09 00:45:03;;;;;;;23.27;20.77;;;;;19.80;101410.00;;;;2079228;28;20624;-71
2023/04/09 00:46:03;;;;;;;22.65;20.23;;;;;19.80;101409.00;;;;2079476;28;20320;-71
2023/04/09 00:47:03;;;;;;;22.67;20.43;;;;;19.80;101416.00;;;;2070578;28;20233;-71
2023/04/09 00:48:04;;;;;;;25.70;22.90;;;;;19.80;101410.00;;;;2070611;28;20225;-71
2023/04/09 00:49:04;;;;;;;23.00;20.70;;;;;19.80;101419.00;;;;2078687;28;20209;-71
2023/04/09 00:50:05;;;;;;;23.30;20.90;;;;;19.80;101407.00;;;;2070492;28;20792;-71
2023/04/09 00:51:06;;;;;;;24.97;21.50;;;;;19.80;101400.00;;;;2069635;28;20222;-71
2023/04/09 00:52:07;;;;;;;22.52;20.20;;;;;19.80;101409.00;;;;2073079;28;20815;-71
2023/04/09 00:53:07;;;;;;;24.33;21.87;;;;;19.70;101413.00;;;;2062260;28;20250;-71
2023/04/09 00:54:08;;;;;;;22.83;20.43;;;;;19.70;101384.00;;;;2069924;28;20213;-71
2023/04/09 00:55:08;;;;;;;23.27;20.87;;;;;19.70;101413.00;;;;2070660;28;20210;-71
2023/04/09 00:56:10;;;;;;;22.77;20.47;;;;;19.70;101412.00;;;;2062152;28;20262;-71
2023/04/09 00:57:11;;;;;;;23.40;21.00;;;;;19.70;101412.00;;;;2070462;28;20324;-71
2023/04/09 00:58:11;;;;;;;22.33;20.00;;;;;19.70;101401.00;;;;2069591;28;21081;-71
2023/04/09 00:59:11;;;;;;;22.30;20.00;;;;;19.70;101413.00;;;;2070414;28;20264;-71
2023/04/09 01:00:12;;;;;;;22.00;19.80;;;;;19.70;101416.00;;;;2075679;28;20554;-71
2023/04/09 01:01:13;;;;;;;22.33;19.97;;;;;19.70;101416.00;;;;2081598;28;20645;-71
2023/04/09 01:02:13;;;;;;;22.50;20.20;;;;;19.70;101388.00;;;;2078489;28;20499;-71
2023/04/09 01:03:13;;;;;;;22.50;20.10;;;;;19.70;101417.00;;;;2078749;28;20320;-71
2023/04/09 01:04:14;;;;;;;20.97;18.70;;;;;19.70;101411.00;;;;2078822;28;20263;-71
2023/04/09 01:05:14;;;;;;;21.80;19.60;;;;;19.70;101414.00;;;;2072018;28;20210;-71
2023/04/09 01:06:25;;;;;;;22.17;19.90;;;;;19.70;101414.00;;;;2078747;28;20247;-71
2023/04/09 01:07:44;;;;;;;21.70;19.50;;;;;19.70;101417.00;;;;2078802;28;20807;-71
2023/04/09 01:09:09;;;;;;;21.23;19.05;;;;;19.70;101411.00;;;;2077885;28;20301;-71
2023/04/09 01:10:35;;;;;;;21.92;19.63;;;;;19.70;101413.00;;;;2078830;28;20216;-71
2023/04/09 01:12:09;;;;;;;21.15;19.05;;;;;19.70;101405.00;;;;2077791;28;20769;-71
2023/04/09 01:13:25;;;;;;;20.17;18.17;;;;;19.70;101376.00;;;;2076266;28;20627;-71
2023/04/09 01:14:47;;;;;;;21.17;19.08;;;;;19.70;101418.00;;;;2077956;28;20585;-71
2023/04/09 01:15:51;;;;;;;19.48;17.58;;;;;19.70;101410.00;;;;2077948;28;20746;-71
2023/04/09 01:16:59;;;;;;;19.10;17.10;;;;;19.70;101377.00;;;;2078858;28;20205;-71
2023/04/09 01:18:02;;;;;;;19.42;17.42;;;;;19.70;101411.00;;;;2078872;28;20211;-71
2023/04/09 01:19:18;;;;;;;20.15;18.02;;;;;19.60;101413.00;;;;2077584;28;20674;-71
2023/04/09 01:20:27;;;;;;;21.20;18.65;;;;;19.60;101393.00;;;;2069563;28;20684;-71
2023/04/09 01:21:31;;;;;;;21.00;18.92;;;;;19.70;101385.00;;;;2064035;28;20582;-71
2023/04/09 01:22:54;;;;;;;19.17;17.20;;;;;19.70;101378.00;;;;2074007;28;20724;-71
2023/04/09 01:24:24;;;;;;;21.25;19.08;;;;;19.60;101396.00;;;;2071064;28;20625;-71
2023/04/09 01:25:48;;;;;;;19.17;17.17;;;;;19.70;101397.00;;;;2077570;28;20229;-71
2023/04/09 01:27:00;;;;;;;18.73;16.75;;;;;19.60;101404.00;;;;2078864;28;20213;-71
2023/04/09 01:28:12;;;;;;;18.48;16.67;;;;;19.60;101398.00;;;;2077882;28;20224;-71
2023/04/09 01:29:12;;;;;;;20.38;17.70;;;;;19.60;101408.00;;;;2072537;28;20294;-71
2023/04/09 01:30:13;;;;;;;19.00;17.10;;;;;19.60;101402.00;;;;2077841;28;20647;-71
2023/04/09 01:31:17;;;;;;;18.60;16.70;;;;;19.60;101408.00;;;;2070381;28;20657;-71
2023/04/09 01:32:17;;;;;;;18.35;16.45;;;;;19.60;101414.00;;;;2061625;28;20214;-71
2023/04/09 01:33:18;;;;;;;19.37;17.40;;;;;19.60;101402.00;;;;2065375;28;20209;-71
2023/04/09 01:34:19;;;;;;;19.58;17.58;;;;;19.60;101402.00;;;;2079281;28;20305;-71
2023/04/09 01:35:19;;;;;;;18.43;16.53;;;;;19.60;101394.00;;;;2082943;28;20302;-71
2023/04/09 01:36:20;;;;;;;19.00;17.10;;;;;19.60;101394.00;;;;2078540;28;20231;-71
2023/04/09 01:37:20;;;;;;;19.40;17.40;;;;;19.60;101397.00;;;;2077834;28;20296;-71
2023/04/09 01:38:20;;;;;;;17.83;16.03;;;;;19.60;101395.00;;;;2070341;28;20242;-71
2023/04/09 01:39:21;;;;;;;19.47;17.47;;;;;19.60;101405.00;;;;2061538;28;20230;-70
2023/04/09 01:40:21;;;;;;;19.73;17.67;;;;;19.60;101400.00;;;;2070264;28;20225;-71
2023/04/09 01:41:22;;;;;;;18.33;16.53;;;;;19.60;101379.00;;;;2070418;28;20740;-71
2023/04/09 01:42:22;;;;;;;17.93;16.13;;;;;19.60;101381.00;;;;2063295;28;20728;-71
2023/04/09 01:43:23;;;;;;;18.97;17.07;;;;;19.60;101404.00;;;;2076098;28;20222;-71
2023/04/09 01:44:23;;;;;;;18.53;16.53;;;;;19.60;101393.00;;;;2069677;28;20289;-71
2023/04/09 01:45:24;;;;;;;18.60;16.70;;;;;19.60;101333.00;;;;2065745;28;20222;-72
2023/04/09 01:46:24;;;;;;;17.37;15.60;;;;;19.60;101405.00;;;;2078454;28;20266;-71
2023/04/09 01:47:25;;;;;;;18.60;16.80;;;;;19.60;101402.00;;;;2078686;28;20221;-71
2023/04/09 01:48:25;;;;;;;17.37;15.57;;;;;19.60;101402.00;;;;2070030;28;20225;-71
2023/04/09 01:49:26;;;;;;;19.00;17.10;;;;;19.60;101407.00;;;;2069772;28;20293;-71
2023/04/09 01:50:26;;;;;;;19.10;17.10;;;;;19.60;101401.00;;;;2069519;28;20622;-71
2023/04/09 01:51:26;;;;;;;18.67;16.83;;;;;19.60;101376.00;;;;2066759;28;20210;-71
2023/04/09 01:52:27;;;;;;;17.33;15.63;;;;;19.60;101410.00;;;;2062221;28;20211;-71
2023/04/09 01:53:27;;;;;;;17.97;16.27;;;;;19.40;101408.00;;;;2060219;28;20291;-71
2023/04/09 01:54:27;;;;;;;18.07;16.27;;;;;19.60;101402.00;;;;2070281;28;20245;-71
2023/04/09 01:55:28;;;;;;;17.50;15.60;;;;;19.60;101395.00;;;;2079083;28;20215;-70
2023/04/09 01:56:41;;;;;;;17.50;15.77;;;;;19.60;101404.00;;;;2078406;28;20213;-71
2023/04/09 01:57:42;;;;;;;17.10;15.40;;;;;19.60;101404.00;;;;2078875;28;20283;-71
2023/04/09 01:58:42;;;;;;;17.97;16.07;;;;;19.60;101403.00;;;;2078533;28;20209;-71
2023/04/09 01:59:43;;;;;;;18.17;16.33;;;;;19.60;101408.00;;;;2079401;28;20233;-70
2023/04/09 02:00:45;;;;;;;18.13;16.33;;;;;19.60;101403.00;;;;2080240;28;20279;-71
2023/04/09 02:01:48;;;;;;;18.75;16.83;;;;;19.60;101407.00;;;;2082682;28;20316;-71
2023/04/09 02:03:08;;;;;;;17.08;15.27;;;;;19.60;101393.00;;;;2080121;28;20278;-71
2023/04/09 02:04:11;;;;;;;16.45;14.75;;;;;19.60;101402.00;;;;2074492;28;20213;-71
2023/04/09 02:05:12;;;;;;;17.08;15.38;;;;;19.60;101407.00;;;;2079692;28;20303;-70
2023/04/09 02:06:21;;;;;;;18.97;16.97;;;;;19.60;101400.00;;;;2080045;28;20210;-70
2023/04/09 02:07:38;;;;;;;17.55;15.70;;;;;19.60;101403.00;;;;2079412;28;20448;-71
2023/04/09 02:08:39;;;;;;;15.77;14.27;;;;;19.60;101398.00;;;;2079003;28;20221;-71
2023/04/09 02:09:39;;;;;;;17.80;15.90;;;;;19.60;101397.00;;;;2079297;28;20213;-71
2023/04/09 02:10:40;;;;;;;17.03;15.33;;;;;19.60;101395.00;;;;2079906;28;20209;-71
2023/04/09 02:11:40;;;;;;;16.13;14.53;;;;;19.60;101399.00;;;;2078868;28;20220;-71
2023/04/09 02:12:44;;;;;;;16.30;14.77;;;;;19.50;101399.00;;;;2079458;28;20217;-70
2023/04/09 02:13:44;;;;;;;17.33;15.63;;;;;19.50;101406.00;;;;2079241;28;20220;-71
2023/04/09 02:14:45;;;;;;;17.30;15.17;;;;;19.50;101393.00;;;;2080084;28;20205;-71
2023/04/09 02:15:45;;;;;;;16.23;14.63;;;;;19.50;101394.00;;;;2079781;28;20232;-71
2023/04/09 02:16:46;;;;;;;17.23;15.40;;;;;19.50;101379.00;;;;2079251;28;20219;-71
2023/04/09 02:17:46;;;;;;;16.23;14.53;;;;;19.50;101394.00;;;;2079972;28;20318;-71
2023/04/09 02:18:47;;;;;;;16.80;15.03;;;;;19.50;101363.00;;;;2079188;28;20210;-71
2023/04/09 02:19:47;;;;;;;17.20;15.50;;;;;19.50;101394.00;;;;2080044;28;20576;-71
2023/04/09 02:20:47;;;;;;;17.20;15.10;;;;;19.50;101395.00;;;;2079114;28;20864;-71
2023/04/09 02:21:48;;;;;;;17.00;15.40;;;;;19.50;101393.00;;;;2080166;28;20241;-71
2023/04/09 02:22:48;;;;;;;16.67;15.03;;;;;19.50;101396.00;;;;2080575;28;20267;-71
2023/04/09 02:23:49;;;;;;;18.27;16.40;;;;;19.50;101401.00;;;;2080147;28;20221;-71
2023/04/09 02:24:49;;;;;;;16.30;14.48;;;;;19.50;101395.00;;;;2080727;28;20212;-71
2023/04/09 02:25:50;;;;;;;16.37;14.87;;;;;19.50;101393.00;;;;2079836;28;20789;-71
2023/04/09 02:26:51;;;;;;;17.07;15.37;;;;;19.50;101387.00;;;;2080707;28;20716;-71
2023/04/09 02:27:51;;;;;;;16.90;15.10;;;;;19.50;101394.00;;;;2081263;28;20470;-71
2023/04/09 02:28:51;;;;;;;15.43;13.87;;;;;19.50;101390.00;;;;2082013;28;20275;-71
2023/04/09 02:29:52;;;;;;;16.60;14.87;;;;;19.50;101395.00;;;;2079598;28;20220;-71
2023/04/09 02:30:52;;;;;;;16.63;14.90;;;;;19.50;101394.00;;;;2079457;28;20237;-71
2023/04/09 02:31:52;;;;;;;15.83;14.23;;;;;19.50;101362.00;;;;2080381;28;20217;-70
2023/04/09 02:32:53;;;;;;;15.63;14.03;;;;;19.50;101393.00;;;;2078790;28;20275;-71
2023/04/09 02:33:53;;;;;;;15.90;14.30;;;;;19.40;101381.00;;;;2079969;28;20260;-71
2023/04/09 02:34:53;;;;;;;15.83;14.30;;;;;19.50;101393.00;;;;2079983;28;20593;-71
2023/04/09 02:35:54;;;;;;;17.60;15.80;;;;;19.50;101392.00;;;;2080589;28;20212;-71
2023/04/09 02:36:54;;;;;;;18.33;16.63;;;;;19.50;101387.00;;;;2080495;28;20263;-71
2023/04/09 02:37:54;;;;;;;15.50;13.97;;;;;19.50;101392.00;;;;2079979;28;20220;-71
2023/04/09 02:38:55;;;;;;;16.57;14.87;;;;;19.50;101387.00;;;;2080378;28;20229;-71
2023/04/09 02:39:55;;;;;;;16.23;14.57;;;;;19.40;101377.00;;;;2079699;28;20304;-71
2023/04/09 02:40:55;;;;;;;16.70;14.97;;;;;19.50;101387.00;;;;2080544;28;20220;-71
2023/04/09 02:41:56;;;;;;;16.23;14.53;;;;;19.50;101382.00;;;;2079468;28;20225;-71
2023/04/09 02:42:57;;;;;;;15.43;13.93;;;;;19.50;101372.00;;;;2074913;28;20276;-71
2023/04/09 02:43:57;;;;;;;16.43;14.80;;;;;19.50;101384.00;;;;2079786;28;20826;-71
2023/04/09 02:44:57;;;;;;;17.53;15.77;;;;;19.50;101380.00;;;;2079904;28;20419;-71
2023/04/09 02:45:58;;;;;;;14.77;13.37;;;;;19.50;101377.00;;;;2080447;28;20221;-70
2023/04/09 02:46:58;;;;;;;15.47;13.13;;;;;19.50;101382.00;;;;2079806;28;20233;-71
2023/04/09 02:47:58;;;;;;;14.23;12.93;;;;;19.50;101385.00;;;;2080479;28;20210;-71
2023/04/09 02:48:59;;;;;;;14.73;13.33;;;;;19.40;101381.00;;;;2079761;28;20506;-71
2023/04/09 02:49:59;;;;;;;15.53;14.10;;;;;19.40;101346.00;;;;2080175;28;20209;-71
2023/04/09 02:51:00;;;;;;;14.47;12.97;;;;;19.50;101370.00;;;;2080546;28;20212;-71
2023/04/09 02:52:00;;;;;;;16.57;14.97;;;;;19.40;101380.00;;;;2080264;28;20235;-71
2023/04/09 02:53:00;;;;;;;15.73;14.07;;;;;19.40;101373.00;;;;2080426;28;20209;-71
2023/04/09 02:54:01;;;;;;;15.33;13.83;;;;;19.50;101375.00;;;;2079086;28;20232;-71
2023/04/09 02:55:02;;;;;;;15.60;14.10;;;;;19.50;101374.00;;;;2080126;28;20245;-71
2023/04/09 02:56:02;;;;;;;16.20;14.50;;;;;19.40;101370.00;;;;2079504;28;20225;-71
2023/04/09 02:57:03;;;;;;;15.80;14.27;;;;;19.40;101284.00;;;;2078662;28;20744;-71
2023/04/09 02:58:03;;;;;;;16.20;14.50;;;;;19.40;101378.00;;;;2080353;28;20225;-71
2023/04/09 02:59:03;;;;;;;15.50;14.00;;;;;19.40;101368.00;;;;2079006;28;20416;-71
2023/04/09 03:00:04;;;;;;;15.80;14.03;;;;;19.40;101363.00;;;;2080292;28;20704;-71
2023/04/09 03:01:04;;;;;;;15.80;14.10;;;;;19.40;101371.00;;;;2079268;28;20653;-71
2023/04/09 03:02:05;;;;;;;15.20;13.70;;;;;19.40;101377.00;;;;2079908;28;20225;-71
2023/04/09 03:03:05;;;;;;;15.57;13.97;;;;;19.40;101378.00;;;;2080439;28;20226;-71
2023/04/09 03:04:05;;;;;;;15.27;13.87;;;;;19.40;101366.00;;;;2080406;28;20218;-71
2023/04/09 03:05:06;;;;;;;15.13;13.63;;;;;19.40;101369.00;;;;2085197;28;20222;-71
2023/04/09 03:06:06;;;;;;;14.93;13.53;;;;;19.40;101373.00;;;;2081734;28;20999;-70
2023/04/09 03:07:07;;;;;;;16.17;14.53;;;;;19.40;101368.00;;;;2080962;28;20230;-71
2023/04/09 03:08:07;;;;;;;15.87;14.23;;;;;19.40;101359.00;;;;2080175;28;20263;-71
2023/04/09 03:09:07;;;;;;;14.73;13.33;;;;;19.40;101374.00;;;;2078723;28;20221;-71
2023/04/09 03:10:08;;;;;;;14.97;13.47;;;;;19.40;101343.00;;;;2079100;28;20228;-71
2023/04/09 03:11:08;;;;;;;15.77;14.17;;;;;19.40;101363.00;;;;2079439;28;20220;-71
2023/04/09 03:12:09;;;;;;;15.60;14.10;;;;;19.40;101368.00;;;;2079210;28;20244;-70
2023/04/09 03:13:09;;;;;;;15.60;13.77;;;;;19.40;101364.00;;;;2080190;28;20221;-71
2023/04/09 03:14:09;;;;;;;16.67;15.00;;;;;19.40;101358.00;;;;2083121;28;20223;-71
2023/04/09 03:15:10;;;;;;;14.77;13.37;;;;;19.40;101357.00;;;;2080209;28;20220;-70
2023/04/09 03:16:10;;;;;;;15.97;14.47;;;;;19.40;101356.00;;;;2078525;28;20225;-71
2023/04/09 03:17:10;;;;;;;16.00;14.47;;;;;19.40;101357.00;;;;2079452;28;20261;-71
2023/04/09 03:18:11;;;;;;;16.50;14.90;;;;;19.40;101357.00;;;;2080117;28;20227;-71
2023/04/09 03:19:11;;;;;;;16.17;14.57;;;;;19.40;101346.00;;;;2080226;28;20695;-71
2023/04/09 03:20:11;;;;;;;14.80;13.40;;;;;19.40;101356.00;;;;2080364;28;20676;-71
2023/04/09 03:21:12;;;;;;;15.60;13.97;;;;;19.30;101351.00;;;;2079283;28;20217;-71
2023/04/09 03:22:12;;;;;;;14.90;13.50;;;;;19.30;101351.00;;;;2079866;28;20221;-71
2023/04/09 03:23:12;;;;;;;14.47;13.17;;;;;19.30;101351.00;;;;2079333;28;20290;-71
2023/04/09 03:24:13;;;;;;;15.90;14.40;;;;;19.40;101298.00;;;;2080114;28;20237;-71
2023/04/09 03:25:13;;;;;;;14.87;13.37;;;;;19.40;101355.00;;;;2080036;28;20220;-71
2023/04/09 03:26:13;;;;;;;15.90;14.30;;;;;19.40;101351.00;;;;2079779;28;20221;-71
2023/04/09 03:27:14;;;;;;;14.50;13.10;;;;;19.30;101351.00;;;;2079390;28;20208;-71
2023/04/09 03:28:14;;;;;;;16.63;14.93;;;;;19.30;101345.00;;;;2079413;28;20231;-71
2023/04/09 03:29:15;;;;;;;15.07;13.57;;;;;19.30;101343.00;;;;2080006;28;20225;-71
2023/04/09 03:30:15;;;;;;;16.10;13.83;;;;;19.30;101346.00;;;;2079466;28;20862;-71
2023/04/09 03:31:15;;;;;;;15.50;13.90;;;;;19.30;101349.00;;;;2080133;28;20859;-71
2023/04/09 03:32:16;;;;;;;15.10;13.50;;;;;19.30;101341.00;;;;2079700;28;20216;-71
2023/04/09 03:33:16;;;;;;;16.53;14.70;;;;;19.30;101348.00;;;;2079623;28;20217;-71
2023/04/09 03:34:16;;;;;;;15.00;13.60;;;;;19.30;101346.00;;;;2079387;28;20310;-71
2023/04/09 03:35:17;;;;;;;15.73;14.03;;;;;19.30;101345.00;;;;2078341;28;20220;-70
2023/04/09 03:36:17;;;;;;;15.77;14.07;;;;;19.30;101355.00;;;;2079332;28;20224;-71
2023/04/09 03:37:17;;;;;;;16.60;14.90;;;;;19.30;101344.00;;;;2078719;28;20232;-71
2023/04/09 03:38:18;;;;;;;15.70;14.10;;;;;19.30;101341.00;;;;2079897;28;20217;-71
2023/04/09 03:39:18;;;;;;;16.10;14.47;;;;;19.30;101342.00;;;;2079471;28;20236;-71
2023/04/09 03:40:19;;;;;;;15.03;13.57;;;;;19.30;101347.00;;;;2084169;28;20372;-71
2023/04/09 03:41:19;;;;;;;15.23;13.73;;;;;19.30;101349.00;;;;2079312;28;20229;-71
2023/04/09 03:42:19;;;;;;;15.30;13.80;;;;;19.30;101346.00;;;;2075789;28;20225;-71
2023/04/09 03:43:20;;;;;;;15.83;13.77;;;;;19.30;101343.00;;;;2071214;28;20217;-71
2023/04/09 03:44:20;;;;;;;15.40;13.80;;;;;19.30;101344.00;;;;2062851;28;20214;-70
2023/04/09 03:45:21;;;;;;;14.97;13.47;;;;;19.30;101340.00;;;;2074100;28;20743;-71
2023/04/09 03:46:21;;;;;;;14.60;13.20;;;;;19.30;101336.00;;;;2079568;28;20220;-71
2023/04/09 03:47:21;;;;;;;15.07;13.63;;;;;19.30;101348.00;;;;2078770;28;20241;-71
2023/04/09 03:48:22;;;;;;;15.57;13.97;;;;;19.30;101343.00;;;;2079364;28;20275;-71
2023/04/09 03:49:22;;;;;;;15.33;13.83;;;;;19.30;101333.00;;;;2080786;28;20227;-71
2023/04/09 03:50:22;;;;;;;14.80;13.33;;;;;19.30;101340.00;;;;2079388;28;20209;-71
2023/04/09 03:51:23;;;;;;;15.03;13.43;;;;;19.30;101334.00;;;;2081017;28;20221;-71
2023/04/09 03:52:23;;;;;;;15.03;13.50;;;;;19.20;101341.00;;;;2080162;28;20243;-71
2023/04/09 03:53:23;;;;;;;15.23;13.70;;;;;19.30;101334.00;;;;2079942;28;20224;-71
2023/04/09 03:54:24;;;;;;;15.73;14.23;;;;;19.30;101341.00;;;;2079343;28;20220;-71
2023/04/09 03:55:24;;;;;;;15.90;14.40;;;;;19.30;101337.00;;;;2080063;28;20310;-70
2023/04/09 03:56:25;;;;;;;15.30;13.80;;;;;19.30;101337.00;;;;2078450;28;20802;-71
2023/04/09 03:57:25;;;;;;;14.67;13.17;;;;;19.30;101327.00;;;;2079181;28;20715;-71
2023/04/09 03:58:25;;;;;;;15.13;13.70;;;;;19.30;101339.00;;;;2079277;28;20205;-70
2023/04/09 03:59:26;;;;;;;16.00;14.40;;;;;19.30;101344.00;;;;2079814;28;20685;-71
2023/04/09 04:00:26;;;;;;;15.57;14.07;;;;;19.20;101337.00;;;;2079827;28;20374;-71
2023/04/09 04:01:26;;;;;;;15.27;13.77;;;;;19.30;101333.00;;;;2083605;28;20216;-70
2023/04/09 04:02:29;;;;;;;15.93;14.33;;;;;19.20;101344.00;;;;2079632;28;20366;-71
2023/04/09 04:03:29;;;;;;;14.88;13.35;;;;;19.20;101340.00;;;;2079197;28;20688;-71
2023/04/09 04:04:29;;;;;;;15.00;13.50;;;;;19.30;101336.00;;;;2079878;28;20216;-71
2023/04/09 04:05:30;;;;;;;15.57;13.97;;;;;19.30;101337.00;;;;2079260;28;20217;-71
2023/04/09 04:06:33;;;;;;;16.07;14.47;;;;;19.30;101341.00;;;;2079860;28;20620;-71
2023/04/09 04:07:33;;;;;;;15.10;13.65;;;;;19.20;101342.00;;;;2079567;28;20221;-71
2023/04/09 04:08:33;;;;;;;15.03;13.53;;;;;19.30;101334.00;;;;2078233;28;20220;-70
2023/04/09 04:09:34;;;;;;;14.30;13.00;;;;;19.20;101334.00;;;;2079077;28;20217;-71
2023/04/09 04:10:34;;;;;;;15.70;14.10;;;;;19.20;101341.00;;;;2079291;28;20237;-71
2023/04/09 04:11:35;;;;;;;16.20;13.67;;;;;19.20;101337.00;;;;2079017;28;20224;-71
2023/04/09 04:12:35;;;;;;;13.90;12.53;;;;;19.20;101346.00;;;;2069863;28;20224;-70
2023/04/09 04:13:35;;;;;;;15.83;14.33;;;;;19.20;101345.00;;;;2070966;28;20225;-71
2023/04/09 04:14:35;;;;;;;13.57;12.17;;;;;19.20;101346.00;;;;2074806;28;20217;-70
2023/04/09 04:15:40;;;;;;;15.87;14.27;;;;;19.20;101347.00;;;;2079310;28;20302;-70
2023/04/09 04:16:41;;;;;;;15.65;14.15;;;;;19.20;101350.00;;;;2079751;28;20680;-70
2023/04/09 04:17:41;;;;;;;16.10;14.50;;;;;19.30;101345.00;;;;2078943;28;20212;-71
2023/04/09 04:18:41;;;;;;;14.80;13.30;;;;;19.20;101342.00;;;;2079899;28;20220;-71
2023/04/09 04:19:42;;;;;;;15.67;14.17;;;;;19.20;101345.00;;;;2078227;28;20259;-71
2023/04/09 04:20:42;;;;;;;14.77;13.40;;;;;19.30;101351.00;;;;2079070;28;20274;-71
2023/04/09 04:21:42;;;;;;;14.97;13.57;;;;;19.20;101341.00;;;;2078618;28;20218;-71
2023/04/09 04:22:43;;;;;;;14.80;13.40;;;;;19.20;101343.00;;;;2077648;28;20224;-71
2023/04/09 04:23:43;;;;;;;15.00;13.60;;;;;19.20;101339.00;;;;2079158;28;20221;-71
2023/04/09 04:24:43;;;;;;;15.97;14.47;;;;;19.20;101351.00;;;;2079868;28;20255;-71
2023/04/09 04:25:44;;;;;;;14.40;12.90;;;;;19.20;101350.00;;;;2078745;28;20899;-71
2023/04/09 04:26:44;;;;;;;14.63;13.23;;;;;19.20;101350.00;;;;2080084;28;20666;-71
2023/04/09 04:27:44;;;;;;;14.90;13.50;;;;;19.20;101349.00;;;;2083272;28;20704;-71
2023/04/09 04:28:45;;;;;;;16.50;14.80;;;;;19.20;101343.00;;;;2079469;28;20684;-71
2023/04/09 04:29:45;;;;;;;14.70;13.20;;;;;19.20;101352.00;;;;2079028;28;20231;-71
2023/04/09 04:30:45;;;;;;;15.13;13.53;;;;;19.20;101347.00;;;;2079660;28;20259;-71
2023/04/09 04:31:46;;;;;;;15.37;13.97;;;;;19.20;101348.00;;;;2078603;28;20220;-71
2023/04/09 04:32:47;;;;;;;15.00;13.60;;;;;19.20;101355.00;;;;2079712;28;20222;-71
2023/04/09 04:33:47;;;;;;;15.43;13.97;;;;;19.20;101347.00;;;;2078866;28;20239;-71
2023/04/09 04:34:48;;;;;;;14.27;12.97;;;;;19.10;101347.00;;;;2079806;28;20478;-71
2023/04/09 04:35:49;;;;;;;14.88;13.38;;;;;19.20;101357.00;;;;2079301;28;20228;-71
2023/04/09 04:36:49;;;;;;;14.63;13.30;;;;;19.20;101344.00;;;;2078854;28;20236;-71
2023/04/09 04:37:50;;;;;;;14.17;12.77;;;;;19.10;101349.00;;;;2079680;28;20684;-71
2023/04/09 04:38:50;;;;;;;14.93;13.60;;;;;19.20;101341.00;;;;2078847;28;20715;-71
2023/04/09 04:39:50;;;;;;;16.20;14.63;;;;;19.20;101362.00;;;;2079438;28;20213;-71
2023/04/09 04:40:51;;;;;;;14.20;12.80;;;;;19.20;101351.00;;;;2081130;28;20224;-71
2023/04/09 04:41:51;;;;;;;14.83;13.37;;;;;19.20;101352.00;;;;2080795;28;20205;-71
2023/04/09 04:42:51;;;;;;;13.90;12.60;;;;;19.10;101358.00;;;;2073719;28;20222;-71
2023/04/09 04:43:52;;;;;;;14.23;12.93;;;;;19.10;101359.00;;;;2082501;28;20208;-71
2023/04/09 04:44:52;;;;;;;14.90;13.40;;;;;19.20;101358.00;;;;2079643;28;20247;-71
2023/04/09 04:45:52;;;;;;;13.80;12.47;;;;;19.20;101342.00;;;;2079335;28;20205;-71
2023/04/09 04:46:53;;;;;;;15.20;13.73;;;;;19.20;101350.00;;;;2078777;28;20244;-71
2023/04/09 04:47:53;;;;;;;14.30;13.00;;;;;19.20;101348.00;;;;2080902;28;20677;-71
2023/04/09 04:48:53;;;;;;;14.97;13.57;;;;;19.20;101356.00;;;;2082224;28;20229;-70
2023/04/09 04:49:54;;;;;;;15.40;13.90;;;;;19.20;101322.00;;;;2078981;28;20213;-71
2023/04/09 04:50:58;;;;;;;14.07;12.67;;;;;19.20;101337.00;;;;2078588;28;20212;-71
2023/04/09 04:51:58;;;;;;;14.45;13.00;;;;;19.20;101358.00;;;;2078684;28;20213;-71
2023/04/09 04:52:59;;;;;;;14.47;13.07;;;;;19.20;101352.00;;;;2078976;28;20205;-71
2023/04/09 04:53:59;;;;;;;16.07;14.57;;;;;19.20;101356.00;;;;2078926;28;20220;-71
2023/04/09 04:54:59;;;;;;;14.53;13.00;;;;;19.20;101355.00;;;;2078129;28;20252;-70
2023/04/09 04:56:00;;;;;;;15.83;14.10;;;;;19.20;101362.00;;;;2079642;28;20212;-71
2023/04/09 04:57:00;;;;;;;15.43;13.47;;;;;19.20;101357.00;;;;2078899;28;20208;-74
2023/04/09 04:58:01;;;;;;;14.73;13.27;;;;;19.20;101357.00;;;;2079490;28;20295;-72